createdAt,value
2019-01-19T00:02:23.681Z,97620.58
2019-01-19T00:06:23.334Z,97616.11
2019-01-19T00:09:42.015Z,97603.86
2019-01-19T00:13:36.446Z,97604.63
2019-01-19T00:17:45.139Z,97602.89
2019-01-19T00:21:42.092Z,97602.09
2019-01-19T00:25:23.720Z,97608.84
2019-01-19T00:28:45.210Z,97597.16
2019-01-19T00:32:25.101Z,97603.94
2019-01-19T00:36:11.499Z,97601.45
2019-01-19T00:40:28.770Z,97595.00
2019-01-19T00:43:59.470Z,97601.08
2019-01-19T00:47:39.008Z,97599.44
2019-01-19T00:51:51.308Z,97594.52
2019-01-19T00:56:15.470Z,97599.34
2019-01-19T00:59:31.509Z,97608.27
2019-01-19T01:03:40.582Z,97597.66
2019-01-19T01:07:40.683Z,97593.55
2019-01-19T01:11:32.005Z,97590.25
2019-01-19T01:15:53.411Z,97608.92
2019-01-19T01:19:59.071Z,97608.94
2019-01-19T01:23:58.840Z,97599.60
2019-01-19T01:28:13.028Z,97600.91
2019-01-19T01:32:13.989Z,97604.76
2019-01-19T01:36:29.275Z,97607.38
2019-01-19T01:40:19.873Z,97606.69
2019-01-19T01:44:00.431Z,97594.47
2019-01-19T01:47:55.996Z,97602.33
2019-01-19T01:51:37.614Z,97603.62
2019-01-19T01:55:16.745Z,97604.05
2019-01-19T01:59:03.518Z,97597.29
2019-01-19T02:03:15.941Z,97592.58
2019-01-19T02:06:56.672Z,97595.33
2019-01-19T02:10:34.080Z,97597.60
2019-01-19T02:14:03.276Z,97600.97
2019-01-19T02:18:13.274Z,97599.89
2019-01-19T02:22:01.860Z,97589.19
2019-01-19T02:25:58.714Z,97582.77
2019-01-19T02:30:08.433Z,97584.78
2019-01-19T02:33:57.646Z,97578.28
2019-01-19T02:38:04.802Z,97581.05
2019-01-19T02:42:24.288Z,97580.76
2019-01-19T02:46:30.191Z,97581.23
2019-01-19T02:50:25.805Z,97576.97
2019-01-19T02:54:31.152Z,97568.22
2019-01-19T02:58:09.396Z,97564.47
2019-01-19T03:02:02.820Z,97572.10
2019-01-19T03:05:56.142Z,97566.30
2019-01-19T03:10:02.076Z,97559.63
2019-01-19T03:14:12.098Z,97556.89
2019-01-19T03:18:09.166Z,97558.57
2019-01-19T03:22:11.901Z,97556.58
2019-01-19T03:26:05.243Z,97557.91
2019-01-19T03:29:55.070Z,97554.41
2019-01-19T03:33:42.075Z,97549.09
2019-01-19T03:37:39.003Z,97548.63
2019-01-19T03:41:53.426Z,97543.73
2019-01-19T03:45:42.691Z,97542.32
2019-01-19T03:50:01.517Z,97533.86
2019-01-19T03:53:56.144Z,97539.75
2019-01-19T03:58:01.907Z,97533.00
2019-01-19T04:02:09.739Z,97541.70
2019-01-19T04:06:14.635Z,97541.43
2019-01-19T04:10:14.101Z,97538.66
2019-01-19T04:14:30.852Z,97533.52
2019-01-19T04:18:20.409Z,97530.34
2019-01-19T04:22:05.419Z,97533.53
2019-01-19T04:26:08.215Z,97530.98
2019-01-19T04:29:15.667Z,97537.26
2019-01-19T04:32:22.559Z,97532.00
2019-01-19T04:35:29.482Z,97536.45
2019-01-19T04:38:38.039Z,97537.80
2019-01-19T04:41:45.047Z,97528.71
2019-01-19T04:44:51.930Z,97529.44
2019-01-19T04:47:58.861Z,97532.23
2019-01-19T04:51:06.035Z,97536.97
2019-01-19T04:54:13.205Z,97534.19
2019-01-19T04:57:20.102Z,97526.33
2019-01-19T05:00:27.034Z,97525.02
2019-01-19T05:03:33.919Z,97524.48
2019-01-19T05:06:40.858Z,97526.95
2019-01-19T05:09:47.866Z,97516.67
2019-01-19T05:12:54.812Z,97518.14
2019-01-19T05:16:01.779Z,97523.23
2019-01-19T05:19:08.693Z,97520.78
2019-01-19T05:22:15.632Z,97521.45
2019-01-19T05:25:22.559Z,97525.48
2019-01-19T05:28:29.444Z,97518.75
2019-01-19T05:31:36.470Z,97524.01
2019-01-19T05:34:43.826Z,97520.01
2019-01-19T05:37:50.765Z,97519.38
2019-01-19T05:40:57.657Z,97513.89
2019-01-19T05:44:04.586Z,97511.29
2019-01-19T05:47:11.654Z,97516.23
2019-01-19T05:50:23.576Z,97512.41
2019-01-19T05:53:30.798Z,97511.16
2019-01-19T05:56:37.730Z,97508.31
2019-01-19T05:59:44.613Z,97514.13
2019-01-19T06:02:51.553Z,97501.97
2019-01-19T06:05:58.811Z,97502.95
2019-01-19T06:09:08.947Z,97498.03
2019-01-19T06:12:15.964Z,97508.76
2019-01-19T06:15:23.394Z,97503.33
2019-01-19T06:18:32.265Z,97507.73
2019-01-19T06:21:47.896Z,97501.92
2019-01-19T06:24:54.797Z,97514.95
2019-01-19T06:28:01.725Z,97511.34
2019-01-19T06:31:08.736Z,97505.13
2019-01-19T06:34:15.781Z,97511.52
2019-01-19T06:37:22.823Z,97511.65
2019-01-19T06:40:29.760Z,97506.85
2019-01-19T06:43:36.641Z,97506.16
2019-01-19T06:46:43.567Z,97511.23
2019-01-19T06:49:50.446Z,97513.89
2019-01-19T06:52:57.366Z,97513.33
2019-01-19T06:56:04.529Z,97510.79
2019-01-19T06:59:17.386Z,97515.77
2019-01-19T07:02:20.108Z,97517.02
2019-01-19T07:05:27.040Z,97512.77
2019-01-19T07:08:33.935Z,97527.14
2019-01-19T07:11:41.376Z,97515.66
2019-01-19T07:14:48.260Z,97518.55
2019-01-19T07:17:55.217Z,97515.70
2019-01-19T07:21:02.119Z,97514.08
2019-01-19T07:24:09.051Z,97514.58
2019-01-19T07:27:17.117Z,97514.08
2019-01-19T07:30:24.053Z,97508.75
2019-01-19T07:33:31.052Z,97515.82
2019-01-19T07:36:38.016Z,97510.23
2019-01-19T07:39:44.911Z,97515.44
2019-01-19T07:42:56.791Z,97514.25
2019-01-19T07:46:05.133Z,97505.86
2019-01-19T07:49:14.661Z,97507.96
2019-01-19T07:52:21.569Z,97510.62
2019-01-19T07:55:28.472Z,97518.69
2019-01-19T07:58:36.585Z,97515.17
2019-01-19T08:01:43.582Z,97515.83
2019-01-19T08:04:50.490Z,97516.69
2019-01-19T08:07:57.446Z,97513.06
2019-01-19T08:11:04.473Z,97523.67
2019-01-19T08:14:12.841Z,97520.42
2019-01-19T08:17:19.733Z,97517.56
2019-01-19T08:20:26.724Z,97517.70
2019-01-19T08:23:35.321Z,97515.58
2019-01-19T08:26:42.604Z,97517.11
2019-01-19T08:29:49.977Z,97515.30
2019-01-19T08:32:57.156Z,97511.34
2019-01-19T08:36:04.854Z,97504.54
2019-01-19T08:39:12.449Z,97506.98
2019-01-19T08:42:36.573Z,97510.30
2019-01-19T08:45:45.265Z,97509.20
2019-01-19T08:48:52.634Z,97501.98
2019-01-19T08:51:59.871Z,97502.84
2019-01-19T08:55:23.558Z,97500.07
2019-01-19T08:58:33.072Z,97499.34
2019-01-19T09:01:55.073Z,97498.58
2019-01-19T09:05:05.311Z,97496.19
2019-01-19T09:08:15.595Z,97495.43
2019-01-19T09:11:23.784Z,97494.84
2019-01-19T09:14:31.061Z,97496.86
2019-01-19T09:17:45.538Z,97494.09
2019-01-19T09:24:44.209Z,97493.81
2019-01-19T09:27:51.118Z,97491.69
2019-01-19T09:30:58.119Z,97489.58
2019-01-19T09:34:05.428Z,97492.34
2019-01-19T09:37:12.555Z,97492.25
2019-01-19T09:40:20.028Z,97486.36
2019-01-19T09:43:27.204Z,97488.69
2019-01-19T09:46:34.114Z,97487.57
2019-01-19T09:49:41.862Z,97490.28
2019-01-19T09:52:48.775Z,97491.01
2019-01-19T09:55:55.848Z,97483.77
2019-01-19T09:59:02.757Z,97487.03
2019-01-19T10:02:12.508Z,97487.48
2019-01-19T10:05:22.104Z,97487.33
2019-01-19T10:08:29.020Z,97485.17
2019-01-19T10:11:36.189Z,97478.61
2019-01-19T10:14:43.185Z,97485.05
2019-01-19T10:17:50.166Z,97483.59
2019-01-19T10:20:57.597Z,97479.84
2019-01-19T10:24:04.670Z,97475.98
2019-01-19T10:27:13.490Z,97476.22
2019-01-19T10:30:24.569Z,97480.77
2019-01-19T10:33:32.702Z,97477.39
2019-01-19T10:36:39.878Z,97479.61
2019-01-19T10:39:47.228Z,97471.42
2019-01-19T10:42:54.207Z,97465.34
2019-01-19T10:46:03.860Z,97469.59
2019-01-19T10:49:15.089Z,97469.71
2019-01-19T10:52:23.158Z,97465.98
2019-01-19T10:55:33.154Z,97459.04
2019-01-19T10:58:42.040Z,97450.72
2019-01-19T11:01:50.665Z,97451.41
2019-01-19T11:05:00.299Z,97450.77
2019-01-19T11:08:12.280Z,97448.98
2019-01-19T11:11:21.171Z,97445.14
2019-01-19T11:14:29.955Z,97435.97
2019-01-19T11:17:37.699Z,97431.15
2019-01-19T11:20:44.628Z,97428.25
2019-01-19T11:23:51.719Z,97424.25
2019-01-19T11:26:58.757Z,97422.79
2019-01-19T11:30:06.887Z,97416.34
2019-01-19T11:33:14.384Z,97417.66
2019-01-19T11:36:23.823Z,97404.77
2019-01-19T11:39:31.085Z,97409.09
2019-01-19T11:42:38.012Z,97400.89
2019-01-19T11:45:46.747Z,97399.56
2019-01-19T11:48:54.362Z,97397.79
2019-01-19T11:52:01.266Z,97394.57
2019-01-19T11:55:11.182Z,97391.48
2019-01-19T11:58:19.423Z,97387.78
2019-01-19T12:01:26.421Z,97387.88
2019-01-19T12:04:33.295Z,97383.06
2019-01-19T12:07:41.561Z,97375.52
2019-01-19T12:10:48.599Z,97379.78
2019-01-19T12:13:56.384Z,97381.88
2019-01-19T12:17:03.263Z,97375.17
2019-01-19T12:20:19.877Z,97371.81
2019-01-19T12:23:26.795Z,97378.11
2019-01-19T12:26:33.847Z,97379.50
2019-01-19T12:29:40.734Z,97375.19
2019-01-19T12:32:47.705Z,97367.37
2019-01-19T12:35:54.718Z,97364.83
2019-01-19T12:39:01.658Z,97363.13
2019-01-19T12:42:09.806Z,97356.26
2019-01-19T12:45:27.986Z,97353.73
2019-01-19T12:48:34.895Z,97349.20
2019-01-19T12:51:42.397Z,97346.77
2019-01-19T12:54:49.531Z,97342.97
2019-01-19T12:57:56.616Z,97341.34
2019-01-19T13:01:03.959Z,97336.41
2019-01-19T13:04:11.976Z,97329.28
2019-01-19T13:07:19.240Z,97328.80
2019-01-19T13:10:40.713Z,97325.92
2019-01-19T13:13:52.244Z,97320.05
2019-01-19T13:17:49.608Z,97319.28
2019-01-19T13:22:00.593Z,97312.56
2019-01-19T13:25:49.034Z,97317.11
2019-01-19T13:29:47.361Z,97306.16
2019-01-19T13:33:55.325Z,97304.98
2019-01-19T13:38:02.402Z,97294.39
2019-01-19T13:41:56.389Z,97291.44
2019-01-19T13:46:00.304Z,97295.11
2019-01-19T13:49:58.376Z,97299.69
2019-01-19T13:54:20.807Z,97299.28
2019-01-19T13:58:02.183Z,97300.08
2019-01-19T14:02:01.830Z,97288.26
2019-01-19T14:05:56.506Z,97292.90
2019-01-19T14:09:51.030Z,97284.31
2019-01-19T14:13:51.216Z,97286.38
2019-01-19T14:18:19.495Z,97288.02
2019-01-19T14:22:15.804Z,97286.46
2019-01-19T14:26:33.463Z,97277.95
2019-01-19T14:30:38.952Z,97275.23
2019-01-19T14:34:20.031Z,97276.48
2019-01-19T14:38:25.246Z,97265.97
2019-01-19T14:42:27.136Z,97257.51
2019-01-19T14:46:16.508Z,97263.24
2019-01-19T14:50:31.910Z,97257.77
2019-01-19T14:54:37.291Z,97256.30
2019-01-19T14:58:36.240Z,97258.86
2019-01-19T15:02:51.553Z,97259.84
2019-01-19T15:07:01.506Z,97255.17
2019-01-19T15:10:53.029Z,97252.12
2019-01-19T15:14:50.637Z,97252.27
2019-01-19T15:18:57.184Z,97251.00
2019-01-19T15:22:50.629Z,97250.94
2019-01-19T15:27:21.849Z,97247.77
2019-01-19T15:31:08.013Z,97248.94
2019-01-19T15:35:19.011Z,97247.20
2019-01-19T15:39:40.963Z,97243.55
2019-01-19T15:43:34.722Z,97239.02
2019-01-19T15:47:30.966Z,97237.47
2019-01-19T15:51:33.600Z,97232.98
2019-01-19T15:55:11.334Z,97231.97
2019-01-19T15:59:14.350Z,97232.37
2019-01-19T16:03:42.632Z,97225.60
2019-01-19T16:07:21.326Z,97227.27
2019-01-19T16:11:55.801Z,97221.84
2019-01-19T16:16:13.610Z,97226.33
2019-01-19T16:20:17.486Z,97224.52
2019-01-19T16:24:12.393Z,97228.20
2019-01-19T16:28:27.246Z,97231.41
2019-01-19T16:32:19.668Z,97227.62
2019-01-19T16:35:55.888Z,97227.09
2019-01-19T16:40:09.061Z,97223.74
2019-01-19T16:43:53.706Z,97226.33
2019-01-19T16:47:50.904Z,97222.55
2019-01-19T16:52:03.510Z,97226.83
2019-01-19T16:56:01.325Z,97221.42
2019-01-19T17:00:09.401Z,97216.65
2019-01-19T17:04:02.280Z,97217.75
2019-01-19T17:08:04.027Z,97216.48
2019-01-19T17:12:22.255Z,97215.80
2019-01-19T17:16:05.099Z,97213.20
2019-01-19T17:19:57.099Z,97214.38
2019-01-19T17:23:34.219Z,97217.38
2019-01-19T17:27:25.874Z,97211.49
2019-01-19T17:31:34.193Z,97213.78
2019-01-19T17:35:33.419Z,97213.78
2019-01-19T17:39:29.215Z,97214.22
2019-01-19T17:44:06.571Z,97214.22
2019-01-19T17:47:45.046Z,97214.18
2019-01-19T17:51:44.683Z,97218.02
2019-01-19T17:55:57.396Z,97207.81
2019-01-19T18:00:02.357Z,97210.89
2019-01-19T18:03:49.156Z,97205.80
2019-01-19T18:08:01.544Z,97205.02
2019-01-19T18:12:20.109Z,97193.64
2019-01-19T18:16:29.534Z,97195.52
2019-01-19T18:20:13.991Z,97192.00
2019-01-19T18:24:25.914Z,97201.03
2019-01-19T18:28:30.712Z,97191.19
2019-01-19T18:32:39.746Z,97187.00
2019-01-19T18:36:30.287Z,97186.73
2019-01-19T18:40:36.678Z,97192.39
2019-01-19T18:44:39.400Z,97195.74
2019-01-19T18:48:47.219Z,97191.08
2019-01-19T18:52:37.479Z,97196.02
2019-01-19T18:56:46.441Z,97193.23
2019-01-19T19:00:47.980Z,97191.34
2019-01-19T19:04:55.221Z,97187.99
2019-01-19T19:08:40.256Z,97187.81
2019-01-19T19:12:47.107Z,97194.22
2019-01-19T19:16:35.926Z,97192.02
2019-01-19T19:20:10.156Z,97189.55
2019-01-19T19:24:08.531Z,97194.55
2019-01-19T19:28:08.998Z,97190.44
2019-01-19T19:32:00.779Z,97189.23
2019-01-19T19:36:18.970Z,97196.52
2019-01-19T19:40:24.264Z,97196.78
2019-01-19T19:44:12.263Z,97193.47
2019-01-19T19:48:05.608Z,97197.33
2019-01-19T19:52:07.311Z,97194.30
2019-01-19T19:55:12.725Z,97194.34
2019-01-19T19:58:20.293Z,97193.70
2019-01-19T20:01:28.081Z,97186.06
2019-01-19T20:04:35.966Z,97183.14
2019-01-19T20:07:44.374Z,97176.72
2019-01-19T20:10:52.789Z,97180.58
2019-01-19T20:14:01.454Z,97187.78
2019-01-19T20:17:10.785Z,97187.60
2019-01-19T20:20:18.376Z,97181.79
2019-01-19T20:23:27.399Z,97185.81
2019-01-19T20:26:35.448Z,97185.75
2019-01-19T20:29:44.008Z,97184.89
2019-01-19T20:32:52.131Z,97181.54
2019-01-19T20:36:03.264Z,97182.64
2019-01-19T20:39:13.036Z,97187.14
2019-01-19T20:42:23.489Z,97185.89
2019-01-19T20:45:31.756Z,97180.14
2019-01-19T20:48:40.062Z,97184.00
2019-01-19T20:51:51.301Z,97189.19
2019-01-19T20:55:10.342Z,97185.67
2019-01-19T20:58:17.968Z,97185.17
2019-01-19T21:01:25.685Z,97185.12
2019-01-19T21:04:34.450Z,97182.89
2019-01-19T21:07:42.681Z,97185.70
2019-01-19T21:10:50.822Z,97186.73
2019-01-19T21:13:59.678Z,97182.11
2019-01-19T21:17:08.226Z,97189.52
2019-01-19T21:20:17.524Z,97183.11
2019-01-19T21:23:25.930Z,97180.45
2019-01-19T21:26:35.002Z,97180.23
2019-01-19T21:29:44.238Z,97186.81
2019-01-19T21:32:52.740Z,97182.33
2019-01-19T21:36:00.600Z,97182.96
2019-01-19T21:39:10.383Z,97174.20
2019-01-19T21:42:18.582Z,97176.96
2019-01-19T21:45:26.617Z,97180.22
2019-01-19T21:48:34.523Z,97177.28
2019-01-19T21:51:44.417Z,97173.96
2019-01-19T21:54:52.379Z,97173.66
2019-01-19T21:58:00.218Z,97174.64
2019-01-19T22:01:08.915Z,97177.66
2019-01-19T22:04:20.145Z,97174.80
2019-01-19T22:07:28.300Z,97174.41
2019-01-19T22:10:36.375Z,97165.55
2019-01-19T22:13:43.928Z,97162.86
2019-01-19T22:16:52.405Z,97165.47
2019-01-19T22:20:00.460Z,97162.90
2019-01-19T22:23:08.369Z,97166.28
2019-01-19T22:26:18.601Z,97165.82
2019-01-19T22:29:26.471Z,97160.20
2019-01-19T22:32:34.624Z,97164.27
2019-01-19T22:35:43.086Z,97157.61
2019-01-19T22:38:51.482Z,97157.45
2019-01-19T22:42:00.172Z,97155.47
2019-01-19T22:45:11.451Z,97158.33
2019-01-19T22:48:19.449Z,97154.07
2019-01-19T22:51:27.955Z,97149.33
2019-01-19T22:54:36.230Z,97146.31
2019-01-19T22:57:44.522Z,97153.42
2019-01-19T23:01:39.646Z,97155.89
2019-01-19T23:04:48.003Z,97151.29
2019-01-19T23:07:56.036Z,97151.56
2019-01-19T23:11:03.271Z,97151.56
2019-01-19T23:14:13.029Z,97153.78
2019-01-19T23:17:20.644Z,97151.88
2019-01-19T23:20:28.608Z,97151.02
2019-01-19T23:23:37.642Z,97156.77
2019-01-19T23:26:46.298Z,97153.34
2019-01-19T23:29:54.205Z,97153.69
2019-01-19T23:33:03.436Z,97154.33
2019-01-19T23:36:11.358Z,97149.23
2019-01-19T23:39:19.396Z,97148.66
2019-01-19T23:42:28.635Z,97152.64
2019-01-19T23:45:36.381Z,97146.52
2019-01-19T23:48:44.662Z,97148.92
2019-01-19T23:51:52.663Z,97143.56
2019-01-19T23:55:00.713Z,97144.58
2019-01-19T23:58:08.665Z,97139.55
